sensor_id;sensor_type;location;lat;lon;timestamp;P1;durP1;ratioP1;P2;durP2;ratioP2
10275;SDS011;5183;51.190;6.820;2024-02-26T00:02:00;3.37;;;2.03;;
10275;SDS011;5183;51.190;6.820;2024-02-26T00:04:29;1.83;;;1.57;;
10275;SDS011;5183;51.190;6.820;2024-02-26T00:06:55;2.00;;;1.50;;
10275;SDS011;5183;51.190;6.820;2024-02-26T00:09:23;1.83;;;1.60;;
10275;SDS011;5183;51.190;6.820;2024-02-26T00:11:50;1.70;;;1.60;;
10275;SDS011;5183;51.190;6.820;2024-02-26T00:14:16;3.13;;;1.60;;
10275;SDS011;5183;51.190;6.820;2024-02-26T00:16:43;2.40;;;1.70;;
10275;SDS011;5183;51.190;6.820;2024-02-26T00:19:11;2.43;;;1.57;;
10275;SDS011;5183;51.190;6.820;2024-02-26T00:21:41;1.73;;;1.60;;
10275;SDS011;5183;51.190;6.820;2024-02-26T00:24:08;1.50;;;1.40;;
10275;SDS011;5183;51.190;6.820;2024-02-26T00:26:35;1.70;;;1.33;;
10275;SDS011;5183;51.190;6.820;2024-02-26T00:29:01;1.57;;;1.47;;
10275;SDS011;5183;51.190;6.820;2024-02-26T00:31:28;2.07;;;1.60;;
10275;SDS011;5183;51.190;6.820;2024-02-26T00:33:55;2.27;;;1.53;;
10275;SDS011;5183;51.190;6.820;2024-02-26T00:36:22;1.70;;;1.60;;
10275;SDS011;5183;51.190;6.820;2024-02-26T00:38:50;2.07;;;1.63;;
10275;SDS011;5183;51.190;6.820;2024-02-26T00:41:17;1.80;;;1.50;;
10275;SDS011;5183;51.190;6.820;2024-02-26T00:43:44;3.77;;;1.50;;
10275;SDS011;5183;51.190;6.820;2024-02-26T00:46:11;2.67;;;1.80;;
10275;SDS011;5183;51.190;6.820;2024-02-26T00:48:38;2.10;;;1.67;;
10275;SDS011;5183;51.190;6.820;2024-02-26T00:51:05;2.63;;;1.70;;
10275;SDS011;5183;51.190;6.820;2024-02-26T00:53:32;1.97;;;1.77;;
10275;SDS011;5183;51.190;6.820;2024-02-26T00:56:01;2.70;;;1.93;;
10275;SDS011;5183;51.190;6.820;2024-02-26T00:58:27;2.00;;;1.63;;
10275;SDS011;5183;51.190;6.820;2024-02-26T01:00:54;1.70;;;1.60;;
10275;SDS011;5183;51.190;6.820;2024-02-26T01:03:21;1.67;;;1.50;;
10275;SDS011;5183;51.190;6.820;2024-02-26T01:05:48;2.97;;;1.53;;
10275;SDS011;5183;51.190;6.820;2024-02-26T01:08:15;2.70;;;1.60;;
10275;SDS011;5183;51.190;6.820;2024-02-26T01:10:41;2.23;;;1.73;;
10275;SDS011;5183;51.190;6.820;2024-02-26T01:13:10;1.80;;;1.70;;
10275;SDS011;5183;51.190;6.820;2024-02-26T01:15:36;2.27;;;1.80;;
10275;SDS011;5183;51.190;6.820;2024-02-26T01:18:03;2.30;;;1.70;;
10275;SDS011;5183;51.190;6.820;2024-02-26T01:20:30;2.47;;;1.70;;
10275;SDS011;5183;51.190;6.820;2024-02-26T01:22:57;1.80;;;1.63;;
10275;SDS011;5183;51.190;6.820;2024-02-26T01:25:24;2.53;;;1.80;;
10275;SDS011;5183;51.190;6.820;2024-02-26T01:27:51;1.80;;;1.50;;
10275;SDS011;5183;51.190;6.820;2024-02-26T01:30:19;1.87;;;1.53;;
10275;SDS011;5183;51.190;6.820;2024-02-26T01:32:46;1.60;;;1.50;;
10275;SDS011;5183;51.190;6.820;2024-02-26T01:35:12;1.90;;;1.63;;
10275;SDS011;5183;51.190;6.820;2024-02-26T01:37:39;1.73;;;1.63;;
10275;SDS011;5183;51.190;6.820;2024-02-26T01:40:07;1.60;;;1.40;;
10275;SDS011;5183;51.190;6.820;2024-02-26T01:42:37;1.60;;;1.50;;
10275;SDS011;5183;51.190;6.820;2024-02-26T01:45:05;1.67;;;1.30;;
10275;SDS011;5183;51.190;6.820;2024-02-26T01:47:34;1.53;;;1.43;;
10275;SDS011;5183;51.190;6.820;2024-02-26T01:50:01;1.87;;;1.53;;
10275;SDS011;5183;51.190;6.820;2024-02-26T01:52:29;2.23;;;1.70;;
10275;SDS011;5183;51.190;6.820;2024-02-26T01:54:57;2.60;;;1.60;;
10275;SDS011;5183;51.190;6.820;2024-02-26T01:57:26;2.37;;;1.50;;
10275;SDS011;5183;51.190;6.820;2024-02-26T01:59:53;1.93;;;1.70;;
10275;SDS011;5183;51.190;6.820;2024-02-26T02:02:21;2.90;;;1.60;;
10275;SDS011;5183;51.190;6.820;2024-02-26T02:04:49;1.80;;;1.50;;
10275;SDS011;5183;51.190;6.820;2024-02-26T02:07:16;1.63;;;1.53;;
10275;SDS011;5183;51.190;6.820;2024-02-26T02:09:44;2.10;;;1.47;;
10275;SDS011;5183;51.190;6.820;2024-02-26T02:12:11;1.70;;;1.40;;
10275;SDS011;5183;51.190;6.820;2024-02-26T02:14:38;1.83;;;1.40;;
10275;SDS011;5183;51.190;6.820;2024-02-26T02:17:05;2.70;;;1.73;;
10275;SDS011;5183;51.190;6.820;2024-02-26T02:19:31;2.87;;;1.70;;
10275;SDS011;5183;51.190;6.820;2024-02-26T02:21:59;1.73;;;1.50;;
10275;SDS011;5183;51.190;6.820;2024-02-26T02:24:26;1.93;;;1.60;;
10275;SDS011;5183;51.190;6.820;2024-02-26T02:26:53;2.27;;;1.63;;
10275;SDS011;5183;51.190;6.820;2024-02-26T02:29:20;2.03;;;1.83;;
10275;SDS011;5183;51.190;6.820;2024-02-26T02:31:48;1.97;;;1.77;;
10275;SDS011;5183;51.190;6.820;2024-02-26T02:34:15;1.70;;;1.60;;
10275;SDS011;5183;51.190;6.820;2024-02-26T02:36:48;2.23;;;1.63;;
10275;SDS011;5183;51.190;6.820;2024-02-26T02:39:17;1.93;;;1.80;;
10275;SDS011;5183;51.190;6.820;2024-02-26T02:41:44;1.70;;;1.60;;
10275;SDS011;5183;51.190;6.820;2024-02-26T02:44:10;1.63;;;1.53;;
10275;SDS011;5183;51.190;6.820;2024-02-26T02:46:37;2.07;;;1.70;;
10275;SDS011;5183;51.190;6.820;2024-02-26T02:49:07;3.10;;;1.70;;
10275;SDS011;5183;51.190;6.820;2024-02-26T02:51:34;1.70;;;1.60;;
10275;SDS011;5183;51.190;6.820;2024-02-26T02:54:01;2.27;;;1.80;;
10275;SDS011;5183;51.190;6.820;2024-02-26T02:56:29;2.30;;;1.73;;
10275;SDS011;5183;51.190;6.820;2024-02-26T02:58:56;2.93;;;2.13;;
10275;SDS011;5183;51.190;6.820;2024-02-26T03:01:23;2.03;;;1.83;;
10275;SDS011;5183;51.190;6.820;2024-02-26T03:03:50;2.30;;;1.87;;
10275;SDS011;5183;51.190;6.820;2024-02-26T03:06:17;2.90;;;1.90;;
10275;SDS011;5183;51.190;6.820;2024-02-26T03:08:44;2.17;;;1.97;;
10275;SDS011;5183;51.190;6.820;2024-02-26T03:11:12;1.70;;;1.60;;
10275;SDS011;5183;51.190;6.820;2024-02-26T03:13:41;2.53;;;1.97;;
10275;SDS011;5183;51.190;6.820;2024-02-26T03:16:08;2.63;;;2.00;;
10275;SDS011;5183;51.190;6.820;2024-02-26T03:18:35;1.90;;;1.70;;
10275;SDS011;5183;51.190;6.820;2024-02-26T03:21:04;2.07;;;1.83;;
10275;SDS011;5183;51.190;6.820;2024-02-26T03:23:31;2.10;;;1.70;;
10275;SDS011;5183;51.190;6.820;2024-02-26T03:26:01;3.53;;;1.77;;
10275;SDS011;5183;51.190;6.820;2024-02-26T03:28:28;2.70;;;1.87;;
10275;SDS011;5183;51.190;6.820;2024-02-26T03:30:57;2.60;;;1.90;;
10275;SDS011;5183;51.190;6.820;2024-02-26T03:33:24;3.00;;;1.90;;
10275;SDS011;5183;51.190;6.820;2024-02-26T03:35:51;2.13;;;1.87;;
10275;SDS011;5183;51.190;6.820;2024-02-26T03:38:18;2.93;;;2.03;;
10275;SDS011;5183;51.190;6.820;2024-02-26T03:40:45;2.53;;;2.10;;
10275;SDS011;5183;51.190;6.820;2024-02-26T03:43:11;3.03;;;1.97;;
10275;SDS011;5183;51.190;6.820;2024-02-26T03:45:38;2.37;;;2.10;;
10275;SDS011;5183;51.190;6.820;2024-02-26T03:48:07;2.40;;;2.20;;
10275;SDS011;5183;51.190;6.820;2024-02-26T03:50:34;2.27;;;2.00;;
10275;SDS011;5183;51.190;6.820;2024-02-26T03:53:00;2.63;;;2.00;;
10275;SDS011;5183;51.190;6.820;2024-02-26T03:55:27;2.73;;;2.00;;
10275;SDS011;5183;51.190;6.820;2024-02-26T03:57:54;3.80;;;2.57;;
10275;SDS011;5183;51.190;6.820;2024-02-26T04:00:21;2.30;;;2.10;;
10275;SDS011;5183;51.190;6.820;2024-02-26T04:02:48;3.13;;;2.23;;
10275;SDS011;5183;51.190;6.820;2024-02-26T04:05:17;3.27;;;2.10;;
10275;SDS011;5183;51.190;6.820;2024-02-26T04:07:44;2.03;;;1.70;;
10275;SDS011;5183;51.190;6.820;2024-02-26T04:10:11;3.27;;;2.20;;
10275;SDS011;5183;51.190;6.820;2024-02-26T04:12:38;3.13;;;2.40;;
10275;SDS011;5183;51.190;6.820;2024-02-26T04:15:06;3.13;;;2.20;;
10275;SDS011;5183;51.190;6.820;2024-02-26T04:17:34;2.20;;;2.00;;
10275;SDS011;5183;51.190;6.820;2024-02-26T04:20:01;1.93;;;1.73;;
10275;SDS011;5183;51.190;6.820;2024-02-26T04:22:29;3.40;;;2.40;;
10275;SDS011;5183;51.190;6.820;2024-02-26T04:24:57;2.63;;;2.30;;
10275;SDS011;5183;51.190;6.820;2024-02-26T04:27:23;4.17;;;2.40;;
10275;SDS011;5183;51.190;6.820;2024-02-26T04:29:50;2.60;;;2.40;;
10275;SDS011;5183;51.190;6.820;2024-02-26T04:32:17;2.80;;;2.40;;
10275;SDS011;5183;51.190;6.820;2024-02-26T04:34:44;2.87;;;2.67;;
10275;SDS011;5183;51.190;6.820;2024-02-26T04:37:11;3.17;;;2.77;;
10275;SDS011;5183;51.190;6.820;2024-02-26T04:39:39;3.10;;;2.70;;
10275;SDS011;5183;51.190;6.820;2024-02-26T04:42:06;2.90;;;2.53;;
10275;SDS011;5183;51.190;6.820;2024-02-26T04:44:31;3.20;;;2.67;;
10275;SDS011;5183;51.190;6.820;2024-02-26T04:46:58;3.37;;;3.07;;
10275;SDS011;5183;51.190;6.820;2024-02-26T04:49:26;3.00;;;2.70;;
10275;SDS011;5183;51.190;6.820;2024-02-26T04:51:53;3.60;;;2.73;;
10275;SDS011;5183;51.190;6.820;2024-02-26T04:54:20;3.87;;;2.90;;
10275;SDS011;5183;51.190;6.820;2024-02-26T04:56:49;6.07;;;3.00;;
10275;SDS011;5183;51.190;6.820;2024-02-26T04:59:15;2.97;;;2.67;;
10275;SDS011;5183;51.190;6.820;2024-02-26T05:01:42;3.17;;;2.83;;
10275;SDS011;5183;51.190;6.820;2024-02-26T05:04:09;3.40;;;3.07;;
10275;SDS011;5183;51.190;6.820;2024-02-26T05:06:36;4.37;;;3.00;;
10275;SDS011;5183;51.190;6.820;2024-02-26T05:09:03;3.10;;;2.80;;
10275;SDS011;5183;51.190;6.820;2024-02-26T05:11:30;4.80;;;4.07;;
10275;SDS011;5183;51.190;6.820;2024-02-26T05:13:58;4.47;;;3.40;;
10275;SDS011;5183;51.190;6.820;2024-02-26T05:16:25;3.90;;;3.33;;
10275;SDS011;5183;51.190;6.820;2024-02-26T05:18:55;3.80;;;3.47;;
10275;SDS011;5183;51.190;6.820;2024-02-26T05:21:22;4.43;;;3.50;;
10275;SDS011;5183;51.190;6.820;2024-02-26T05:23:48;4.70;;;3.67;;
10275;SDS011;5183;51.190;6.820;2024-02-26T05:26:19;3.93;;;3.57;;
10275;SDS011;5183;51.190;6.820;2024-02-26T05:28:46;4.17;;;3.77;;
10275;SDS011;5183;51.190;6.820;2024-02-26T05:31:14;4.10;;;3.70;;
10275;SDS011;5183;51.190;6.820;2024-02-26T05:33:41;5.30;;;3.80;;
10275;SDS011;5183;51.190;6.820;2024-02-26T05:36:08;3.70;;;3.30;;
10275;SDS011;5183;51.190;6.820;2024-02-26T05:38:35;3.80;;;3.50;;
10275;SDS011;5183;51.190;6.820;2024-02-26T05:41:02;4.23;;;3.63;;
10275;SDS011;5183;51.190;6.820;2024-02-26T05:43:29;4.43;;;3.83;;
10275;SDS011;5183;51.190;6.820;2024-02-26T05:45:56;5.43;;;3.67;;
10275;SDS011;5183;51.190;6.820;2024-02-26T05:48:24;3.93;;;3.60;;
10275;SDS011;5183;51.190;6.820;2024-02-26T05:50:51;4.77;;;3.53;;
10275;SDS011;5183;51.190;6.820;2024-02-26T05:53:18;4.30;;;3.90;;
10275;SDS011;5183;51.190;6.820;2024-02-26T05:55:45;4.17;;;3.33;;
10275;SDS011;5183;51.190;6.820;2024-02-26T05:58:12;6.13;;;3.70;;
10275;SDS011;5183;51.190;6.820;2024-02-26T06:00:39;4.13;;;3.80;;
10275;SDS011;5183;51.190;6.820;2024-02-26T06:03:06;4.73;;;3.83;;
10275;SDS011;5183;51.190;6.820;2024-02-26T06:05:34;6.30;;;4.10;;
10275;SDS011;5183;51.190;6.820;2024-02-26T06:08:01;5.60;;;4.10;;
10275;SDS011;5183;51.190;6.820;2024-02-26T06:10:28;4.90;;;4.40;;
10275;SDS011;5183;51.190;6.820;2024-02-26T06:12:55;5.17;;;4.43;;
10275;SDS011;5183;51.190;6.820;2024-02-26T06:15:21;7.10;;;4.97;;
10275;SDS011;5183;51.190;6.820;2024-02-26T06:17:48;9.80;;;8.03;;
10275;SDS011;5183;51.190;6.820;2024-02-26T06:20:15;6.53;;;5.23;;
10275;SDS011;5183;51.190;6.820;2024-02-26T06:22:43;8.47;;;7.57;;
10275;SDS011;5183;51.190;6.820;2024-02-26T06:25:10;5.30;;;4.80;;
10275;SDS011;5183;51.190;6.820;2024-02-26T06:27:37;5.43;;;4.90;;
10275;SDS011;5183;51.190;6.820;2024-02-26T06:30:04;6.67;;;4.90;;
10275;SDS011;5183;51.190;6.820;2024-02-26T06:32:33;5.20;;;4.60;;
10275;SDS011;5183;51.190;6.820;2024-02-26T06:35:00;5.53;;;4.70;;
10275;SDS011;5183;51.190;6.820;2024-02-26T06:37:31;4.77;;;4.33;;
10275;SDS011;5183;51.190;6.820;2024-02-26T06:40:00;5.17;;;4.67;;
10275;SDS011;5183;51.190;6.820;2024-02-26T06:42:29;7.40;;;4.93;;
10275;SDS011;5183;51.190;6.820;2024-02-26T06:44:55;5.87;;;4.40;;
10275;SDS011;5183;51.190;6.820;2024-02-26T06:47:23;5.73;;;5.13;;
10275;SDS011;5183;51.190;6.820;2024-02-26T06:49:51;5.30;;;4.80;;
10275;SDS011;5183;51.190;6.820;2024-02-26T06:52:17;5.20;;;4.70;;
10275;SDS011;5183;51.190;6.820;2024-02-26T06:54:44;7.43;;;6.70;;
10275;SDS011;5183;51.190;6.820;2024-02-26T06:57:14;6.70;;;5.70;;
10275;SDS011;5183;51.190;6.820;2024-02-26T06:59:41;6.70;;;5.33;;
10275;SDS011;5183;51.190;6.820;2024-02-26T07:02:11;8.27;;;6.07;;
10275;SDS011;5183;51.190;6.820;2024-02-26T07:04:37;6.57;;;5.97;;
10275;SDS011;5183;51.190;6.820;2024-02-26T07:07:04;7.73;;;5.87;;
10275;SDS011;5183;51.190;6.820;2024-02-26T07:09:31;6.40;;;5.70;;
10275;SDS011;5183;51.190;6.820;2024-02-26T07:11:58;6.70;;;6.00;;
10275;SDS011;5183;51.190;6.820;2024-02-26T07:14:26;7.10;;;6.40;;
10275;SDS011;5183;51.190;6.820;2024-02-26T07:16:53;6.93;;;5.93;;
10275;SDS011;5183;51.190;6.820;2024-02-26T07:19:21;7.00;;;6.20;;
10275;SDS011;5183;51.190;6.820;2024-02-26T07:21:47;6.77;;;6.00;;
10275;SDS011;5183;51.190;6.820;2024-02-26T07:24:14;6.63;;;6.03;;
10275;SDS011;5183;51.190;6.820;2024-02-26T07:26:41;6.23;;;5.60;;
10275;SDS011;5183;51.190;6.820;2024-02-26T07:29:08;7.13;;;6.40;;
10275;SDS011;5183;51.190;6.820;2024-02-26T07:31:36;7.60;;;6.53;;
10275;SDS011;5183;51.190;6.820;2024-02-26T07:34:03;8.23;;;6.17;;
10275;SDS011;5183;51.190;6.820;2024-02-26T07:36:29;6.63;;;5.93;;
10275;SDS011;5183;51.190;6.820;2024-02-26T07:38:56;7.00;;;6.23;;
10275;SDS011;5183;51.190;6.820;2024-02-26T07:41:23;6.33;;;5.60;;
10275;SDS011;5183;51.190;6.820;2024-02-26T07:43:50;7.50;;;5.63;;
10275;SDS011;5183;51.190;6.820;2024-02-26T07:46:17;6.80;;;5.67;;
10275;SDS011;5183;51.190;6.820;2024-02-26T07:48:45;7.27;;;5.83;;
10275;SDS011;5183;51.190;6.820;2024-02-26T07:51:12;6.93;;;5.90;;
10275;SDS011;5183;51.190;6.820;2024-02-26T07:53:40;6.37;;;5.77;;
10275;SDS011;5183;51.190;6.820;2024-02-26T07:56:06;6.40;;;5.53;;
10275;SDS011;5183;51.190;6.820;2024-02-26T07:58:33;6.97;;;6.13;;
10275;SDS011;5183;51.190;6.820;2024-02-26T08:01:00;6.90;;;5.20;;
10275;SDS011;5183;51.190;6.820;2024-02-26T08:03:27;5.77;;;5.23;;
10275;SDS011;5183;51.190;6.820;2024-02-26T08:05:55;7.03;;;5.20;;
10275;SDS011;5183;51.190;6.820;2024-02-26T08:08:22;5.70;;;5.03;;
10275;SDS011;5183;51.190;6.820;2024-02-26T08:10:49;6.97;;;5.47;;
10275;SDS011;5183;51.190;6.820;2024-02-26T08:13:16;5.23;;;4.73;;
10275;SDS011;5183;51.190;6.820;2024-02-26T08:15:43;5.90;;;5.13;;
10275;SDS011;5183;51.190;6.820;2024-02-26T08:18:09;6.03;;;5.33;;
10275;SDS011;5183;51.190;6.820;2024-02-26T08:20:36;6.93;;;5.23;;
10275;SDS011;5183;51.190;6.820;2024-02-26T08:23:05;5.70;;;5.10;;
10275;SDS011;5183;51.190;6.820;2024-02-26T08:25:32;5.20;;;4.70;;
10275;SDS011;5183;51.190;6.820;2024-02-26T08:27:59;6.20;;;4.07;;
10275;SDS011;5183;51.190;6.820;2024-02-26T08:30:25;5.40;;;4.20;;
10275;SDS011;5183;51.190;6.820;2024-02-26T08:32:52;6.13;;;4.70;;
10275;SDS011;5183;51.190;6.820;2024-02-26T08:35:19;5.70;;;4.30;;
10275;SDS011;5183;51.190;6.820;2024-02-26T08:37:46;6.00;;;4.20;;
10275;SDS011;5183;51.190;6.820;2024-02-26T08:40:15;5.03;;;4.37;;
10275;SDS011;5183;51.190;6.820;2024-02-26T08:42:42;5.27;;;4.60;;
10275;SDS011;5183;51.190;6.820;2024-02-26T08:45:09;4.90;;;4.20;;
10275;SDS011;5183;51.190;6.820;2024-02-26T08:47:36;5.33;;;4.73;;
10275;SDS011;5183;51.190;6.820;2024-02-26T08:50:03;5.27;;;4.40;;
10275;SDS011;5183;51.190;6.820;2024-02-26T08:52:31;4.23;;;3.83;;
10275;SDS011;5183;51.190;6.820;2024-02-26T08:54:58;5.23;;;4.00;;
10275;SDS011;5183;51.190;6.820;2024-02-26T08:57:26;6.67;;;4.33;;
10275;SDS011;5183;51.190;6.820;2024-02-26T08:59:53;4.27;;;3.83;;
10275;SDS011;5183;51.190;6.820;2024-02-26T09:02:20;4.67;;;3.90;;
10275;SDS011;5183;51.190;6.820;2024-02-26T09:04:47;4.80;;;3.87;;
10275;SDS011;5183;51.190;6.820;2024-02-26T09:07:13;4.30;;;3.73;;
10275;SDS011;5183;51.190;6.820;2024-02-26T09:09:40;5.37;;;4.13;;
10275;SDS011;5183;51.190;6.820;2024-02-26T09:12:07;5.07;;;3.60;;
10275;SDS011;5183;51.190;6.820;2024-02-26T09:14:35;6.13;;;4.30;;
10275;SDS011;5183;51.190;6.820;2024-02-26T09:17:02;8.23;;;4.20;;
10275;SDS011;5183;51.190;6.820;2024-02-26T09:19:30;5.53;;;3.93;;
10275;SDS011;5183;51.190;6.820;2024-02-26T09:21:57;5.47;;;3.90;;
10275;SDS011;5183;51.190;6.820;2024-02-26T09:24:24;5.00;;;4.27;;
10275;SDS011;5183;51.190;6.820;2024-02-26T09:26:52;4.17;;;3.77;;
10275;SDS011;5183;51.190;6.820;2024-02-26T09:29:19;4.67;;;4.27;;
10275;SDS011;5183;51.190;6.820;2024-02-26T09:31:47;6.77;;;4.43;;
10275;SDS011;5183;51.190;6.820;2024-02-26T09:34:14;6.87;;;4.73;;
10275;SDS011;5183;51.190;6.820;2024-02-26T09:36:40;4.63;;;4.17;;
10275;SDS011;5183;51.190;6.820;2024-02-26T09:39:07;6.40;;;3.90;;
10275;SDS011;5183;51.190;6.820;2024-02-26T09:41:36;5.07;;;4.03;;
10275;SDS011;5183;51.190;6.820;2024-02-26T09:44:04;4.83;;;3.97;;
10275;SDS011;5183;51.190;6.820;2024-02-26T09:46:32;4.60;;;4.20;;
10275;SDS011;5183;51.190;6.820;2024-02-26T09:49:00;5.30;;;4.23;;
10275;SDS011;5183;51.190;6.820;2024-02-26T09:51:27;6.77;;;5.67;;
10275;SDS011;5183;51.190;6.820;2024-02-26T09:53:54;4.93;;;4.20;;
10275;SDS011;5183;51.190;6.820;2024-02-26T09:56:25;5.27;;;4.23;;
10275;SDS011;5183;51.190;6.820;2024-02-26T09:58:53;4.23;;;3.80;;
10275;SDS011;5183;51.190;6.820;2024-02-26T10:01:22;4.43;;;4.03;;
10275;SDS011;5183;51.190;6.820;2024-02-26T10:03:51;5.10;;;3.80;;
10275;SDS011;5183;51.190;6.820;2024-02-26T10:06:22;4.77;;;3.87;;
10275;SDS011;5183;51.190;6.820;2024-02-26T10:08:52;4.57;;;4.03;;
10275;SDS011;5183;51.190;6.820;2024-02-26T10:11:20;4.30;;;3.90;;
10275;SDS011;5183;51.190;6.820;2024-02-26T10:13:49;5.13;;;4.00;;
10275;SDS011;5183;51.190;6.820;2024-02-26T10:16:16;4.27;;;3.80;;
10275;SDS011;5183;51.190;6.820;2024-02-26T10:18:46;5.07;;;4.57;;
10275;SDS011;5183;51.190;6.820;2024-02-26T10:21:15;7.10;;;4.53;;
10275;SDS011;5183;51.190;6.820;2024-02-26T10:23:45;4.20;;;3.80;;
10275;SDS011;5183;51.190;6.820;2024-02-26T10:26:12;5.57;;;4.00;;
10275;SDS011;5183;51.190;6.820;2024-02-26T10:28:41;4.67;;;3.57;;
10275;SDS011;5183;51.190;6.820;2024-02-26T10:31:10;4.33;;;3.80;;
10275;SDS011;5183;51.190;6.820;2024-02-26T10:33:39;4.77;;;3.90;;
10275;SDS011;5183;51.190;6.820;2024-02-26T10:36:07;6.17;;;4.37;;
10275;SDS011;5183;51.190;6.820;2024-02-26T10:38:34;5.30;;;3.90;;
10275;SDS011;5183;51.190;6.820;2024-02-26T10:41:03;6.13;;;4.60;;
10275;SDS011;5183;51.190;6.820;2024-02-26T10:43:30;6.90;;;4.60;;
10275;SDS011;5183;51.190;6.820;2024-02-26T10:45:57;6.33;;;4.97;;
10275;SDS011;5183;51.190;6.820;2024-02-26T10:48:24;5.50;;;4.90;;
10275;SDS011;5183;51.190;6.820;2024-02-26T10:50:51;6.93;;;4.70;;
10275;SDS011;5183;51.190;6.820;2024-02-26T10:53:20;5.10;;;4.60;;
10275;SDS011;5183;51.190;6.820;2024-02-26T10:55:48;5.50;;;4.87;;
10275;SDS011;5183;51.190;6.820;2024-02-26T10:58:20;6.03;;;4.30;;
10275;SDS011;5183;51.190;6.820;2024-02-26T11:00:50;7.57;;;5.70;;
10275;SDS011;5183;51.190;6.820;2024-02-26T11:03:17;7.70;;;5.03;;
10275;SDS011;5183;51.190;6.820;2024-02-26T11:05:46;6.77;;;5.50;;
10275;SDS011;5183;51.190;6.820;2024-02-26T11:08:14;8.53;;;5.67;;
10275;SDS011;5183;51.190;6.820;2024-02-26T11:10:42;6.50;;;5.80;;
10275;SDS011;5183;51.190;6.820;2024-02-26T11:13:10;7.23;;;5.57;;
10275;SDS011;5183;51.190;6.820;2024-02-26T11:15:41;7.97;;;5.23;;
10275;SDS011;5183;51.190;6.820;2024-02-26T11:18:10;6.07;;;5.23;;
10275;SDS011;5183;51.190;6.820;2024-02-26T11:20:38;5.57;;;4.80;;
10275;SDS011;5183;51.190;6.820;2024-02-26T11:23:07;6.50;;;5.30;;
10275;SDS011;5183;51.190;6.820;2024-02-26T11:25:34;7.27;;;5.23;;
10275;SDS011;5183;51.190;6.820;2024-02-26T11:28:05;5.77;;;4.80;;
10275;SDS011;5183;51.190;6.820;2024-02-26T11:30:35;6.10;;;4.47;;
10275;SDS011;5183;51.190;6.820;2024-02-26T11:33:09;5.10;;;4.60;;
10275;SDS011;5183;51.190;6.820;2024-02-26T11:35:37;5.57;;;4.80;;
10275;SDS011;5183;51.190;6.820;2024-02-26T11:38:05;8.83;;;5.10;;
10275;SDS011;5183;51.190;6.820;2024-02-26T11:40:32;6.87;;;5.07;;
10275;SDS011;5183;51.190;6.820;2024-02-26T11:43:04;5.50;;;5.00;;
10275;SDS011;5183;51.190;6.820;2024-02-26T11:45:50;6.00;;;5.23;;
10275;SDS011;5183;51.190;6.820;2024-02-26T11:48:22;6.33;;;5.10;;
10275;SDS011;5183;51.190;6.820;2024-02-26T11:50:50;5.60;;;5.10;;
10275;SDS011;5183;51.190;6.820;2024-02-26T11:53:22;5.83;;;5.23;;
10275;SDS011;5183;51.190;6.820;2024-02-26T11:58:39;6.53;;;5.93;;
10275;SDS011;5183;51.190;6.820;2024-02-26T12:04:12;7.00;;;6.07;;
10275;SDS011;5183;51.190;6.820;2024-02-26T12:06:44;6.53;;;5.93;;
10275;SDS011;5183;51.190;6.820;2024-02-26T12:09:13;7.23;;;5.77;;
10275;SDS011;5183;51.190;6.820;2024-02-26T12:11:56;7.10;;;6.40;;
10275;SDS011;5183;51.190;6.820;2024-02-26T12:14:24;7.20;;;6.30;;
10275;SDS011;5183;51.190;6.820;2024-02-26T12:16:52;8.83;;;7.30;;
10275;SDS011;5183;51.190;6.820;2024-02-26T12:19:20;7.90;;;7.10;;
10275;SDS011;5183;51.190;6.820;2024-02-26T12:21:51;8.33;;;7.30;;
10275;SDS011;5183;51.190;6.820;2024-02-26T12:24:19;9.40;;;7.23;;
10275;SDS011;5183;51.190;6.820;2024-02-26T12:26:46;9.57;;;7.50;;
10275;SDS011;5183;51.190;6.820;2024-02-26T12:29:13;8.93;;;8.03;;
10275;SDS011;5183;51.190;6.820;2024-02-26T12:31:40;9.80;;;8.33;;
10275;SDS011;5183;51.190;6.820;2024-02-26T12:34:08;8.47;;;7.57;;
10275;SDS011;5183;51.190;6.820;2024-02-26T12:36:37;11.47;;;8.40;;
10275;SDS011;5183;51.190;6.820;2024-02-26T12:39:03;9.73;;;8.23;;
10275;SDS011;5183;51.190;6.820;2024-02-26T12:41:31;10.37;;;8.97;;
10275;SDS011;5183;51.190;6.820;2024-02-26T12:43:59;11.40;;;9.30;;
10275;SDS011;5183;51.190;6.820;2024-02-26T12:46:26;11.33;;;9.50;;
10275;SDS011;5183;51.190;6.820;2024-02-26T12:48:55;11.63;;;10.10;;
10275;SDS011;5183;51.190;6.820;2024-02-26T12:51:23;11.93;;;10.53;;
10275;SDS011;5183;51.190;6.820;2024-02-26T12:53:53;13.87;;;10.47;;
10275;SDS011;5183;51.190;6.820;2024-02-26T12:56:20;10.53;;;9.43;;
10275;SDS011;5183;51.190;6.820;2024-02-26T12:58:48;13.97;;;10.70;;
10275;SDS011;5183;51.190;6.820;2024-02-26T13:01:17;13.37;;;10.47;;
10275;SDS011;5183;51.190;6.820;2024-02-26T13:03:49;12.77;;;10.80;;
10275;SDS011;5183;51.190;6.820;2024-02-26T13:06:17;13.60;;;11.43;;
10275;SDS011;5183;51.190;6.820;2024-02-26T13:08:44;14.30;;;11.50;;
10275;SDS011;5183;51.190;6.820;2024-02-26T13:11:13;14.03;;;11.90;;
10275;SDS011;5183;51.190;6.820;2024-02-26T13:13:40;16.03;;;12.17;;
10275;SDS011;5183;51.190;6.820;2024-02-26T13:16:08;14.63;;;11.90;;
10275;SDS011;5183;51.190;6.820;2024-02-26T13:18:36;14.50;;;12.47;;
10275;SDS011;5183;51.190;6.820;2024-02-26T13:21:09;14.53;;;11.80;;
10275;SDS011;5183;51.190;6.820;2024-02-26T13:23:37;15.73;;;12.33;;
10275;SDS011;5183;51.190;6.820;2024-02-26T13:26:04;16.03;;;12.77;;
10275;SDS011;5183;51.190;6.820;2024-02-26T13:28:33;15.73;;;12.43;;
10275;SDS011;5183;51.190;6.820;2024-02-26T13:31:00;17.27;;;13.70;;
10275;SDS011;5183;51.190;6.820;2024-02-26T13:33:29;15.60;;;13.70;;
10275;SDS011;5183;51.190;6.820;2024-02-26T13:35:57;15.83;;;13.17;;
10275;SDS011;5183;51.190;6.820;2024-02-26T13:38:24;15.70;;;13.53;;
10275;SDS011;5183;51.190;6.820;2024-02-26T13:40:51;15.73;;;14.10;;
10275;SDS011;5183;51.190;6.820;2024-02-26T13:43:19;17.13;;;14.50;;
10275;SDS011;5183;51.190;6.820;2024-02-26T13:45:47;16.50;;;14.17;;
10275;SDS011;5183;51.190;6.820;2024-02-26T13:48:14;18.33;;;15.53;;
10275;SDS011;5183;51.190;6.820;2024-02-26T13:50:41;18.33;;;15.27;;
10275;SDS011;5183;51.190;6.820;2024-02-26T13:53:10;19.97;;;15.77;;
10275;SDS011;5183;51.190;6.820;2024-02-26T13:55:38;18.33;;;15.43;;
10275;SDS011;5183;51.190;6.820;2024-02-26T13:58:07;18.43;;;15.73;;
10275;SDS011;5183;51.190;6.820;2024-02-26T14:00:34;16.90;;;15.10;;
10275;SDS011;5183;51.190;6.820;2024-02-26T14:03:03;20.57;;;14.97;;
10275;SDS011;5183;51.190;6.820;2024-02-26T14:05:30;16.47;;;14.67;;
10275;SDS011;5183;51.190;6.820;2024-02-26T14:07:57;16.47;;;13.93;;
10275;SDS011;5183;51.190;6.820;2024-02-26T14:10:24;15.47;;;13.87;;
10275;SDS011;5183;51.190;6.820;2024-02-26T14:12:51;15.07;;;13.30;;
10275;SDS011;5183;51.190;6.820;2024-02-26T14:15:18;18.10;;;15.03;;
10275;SDS011;5183;51.190;6.820;2024-02-26T14:17:45;16.53;;;13.50;;
10275;SDS011;5183;51.190;6.820;2024-02-26T14:20:19;14.07;;;12.40;;
10275;SDS011;5183;51.190;6.820;2024-02-26T14:22:47;16.00;;;12.50;;
10275;SDS011;5183;51.190;6.820;2024-02-26T14:25:14;15.43;;;12.03;;
10275;SDS011;5183;51.190;6.820;2024-02-26T14:27:41;14.40;;;12.90;;
10275;SDS011;5183;51.190;6.820;2024-02-26T14:30:08;15.07;;;12.90;;
10275;SDS011;5183;51.190;6.820;2024-02-26T14:32:35;12.93;;;11.53;;
10275;SDS011;5183;51.190;6.820;2024-02-26T14:35:03;15.53;;;11.47;;
10275;SDS011;5183;51.190;6.820;2024-02-26T14:37:33;13.67;;;11.57;;
10275;SDS011;5183;51.190;6.820;2024-02-26T14:40:00;13.70;;;11.67;;
10275;SDS011;5183;51.190;6.820;2024-02-26T14:42:27;14.27;;;11.60;;
10275;SDS011;5183;51.190;6.820;2024-02-26T14:44:54;14.47;;;11.40;;
10275;SDS011;5183;51.190;6.820;2024-02-26T14:47:21;13.17;;;11.77;;
10275;SDS011;5183;51.190;6.820;2024-02-26T14:49:48;13.00;;;11.37;;
10275;SDS011;5183;51.190;6.820;2024-02-26T14:52:17;17.90;;;13.97;;
10275;SDS011;5183;51.190;6.820;2024-02-26T14:54:45;14.27;;;12.77;;
10275;SDS011;5183;51.190;6.820;2024-02-26T14:57:12;13.20;;;11.17;;
10275;SDS011;5183;51.190;6.820;2024-02-26T14:59:39;11.90;;;10.67;;
10275;SDS011;5183;51.190;6.820;2024-02-26T15:02:07;11.90;;;10.63;;
10275;SDS011;5183;51.190;6.820;2024-02-26T15:04:35;12.57;;;11.20;;
10275;SDS011;5183;51.190;6.820;2024-02-26T15:07:02;15.10;;;11.30;;